Time;durP1;ratioP1;P1;durP2;ratioP2;P2;SDS_P1;SDS_P2;PMS_P1;PMS_P2;Temp;Humidity;BMP_temperature;BMP_pressure;BME280_temperature;BME280_humidity;BME280_pressure;Samples;Min_cycle;Max_cycle;Signal;HPM_P1;HPM_P2
2023/10/17 00:00:45;;;;;;;20.50;11.20;;;;;;;3.15;81.26;100956.79;108956;277;38821;-69
2023/10/17 00:03:41;;;;;;;18.50;11.30;;;;;;;3.09;81.37;100960.06;108945;277;38523;-69
2023/10/17 00:06:17;;;;;;;18.40;10.70;;;;;;;3.06;81.58;100959.02;108970;277;41948;-72
2023/10/17 00:08:56;;;;;;;17.00;10.10;;;;;;;3.05;81.77;100955.75;108943;277;39429;-71
2023/10/17 00:11:39;;;;;;;18.10;10.10;;;;;;;3.03;81.71;100956.78;108937;277;38854;-70
2023/10/17 00:14:17;;;;;;;20.10;10.20;;;;;;;3.02;81.85;100954.17;108926;277;40810;-73
2023/10/17 00:17:13;;;;;;;15.90;11.20;;;;;;;3.02;81.93;100961.41;108991;277;38353;-72
2023/10/17 00:19:52;;;;;;;17.20;10.40;;;;;;;3.00;82.01;100964.01;109044;277;38940;-72
2023/10/17 00:22:35;;;;;;;18.00;11.40;;;;;;;2.97;81.95;100961.41;108984;277;38399;-73
2023/10/17 00:25:17;;;;;;;22.90;10.60;;;;;;;2.93;82.11;100960.20;109003;269;38477;-73
2023/10/17 00:27:54;;;;;;;16.20;11.00;;;;;;;2.91;82.27;100961.74;108831;277;175808;-72
2023/10/17 00:30:31;;;;;;;13.70;9.90;;;;;;;2.91;82.38;100963.30;108993;277;38450;-69
2023/10/17 00:33:09;;;;;;;17.00;10.20;;;;;;;2.92;82.39;100966.04;108927;277;38069;-69
2023/10/17 00:35:54;;;;;;;18.70;10.60;;;;;;;2.89;82.26;100964.50;108983;277;39705;-74
2023/10/17 00:38:37;;;;;;;15.70;10.10;;;;;;;2.87;82.34;100967.41;108957;277;38451;-72
2023/10/17 00:41:29;;;;;;;19.50;11.30;;;;;;;2.83;82.39;100968.78;108954;277;38315;-68
2023/10/17 00:44:06;;;;;;;17.60;10.30;;;;;;;2.78;82.24;100968.42;108959;277;38941;-70
2023/10/17 00:46:41;;;;;;;14.70;9.60;;;;;;;2.73;82.27;100971.16;108972;277;39017;-70
2023/10/17 00:49:23;;;;;;;16.30;9.90;;;;;;;2.70;82.35;100968.73;109127;276;39501;-71
2023/10/17 00:52:03;;;;;;;15.70;10.40;;;;;;;2.67;82.52;100965.96;109097;276;38253;-73
2023/10/17 00:54:40;;;;;;;16.60;9.00;;;;;;;2.65;82.60;100973.55;109250;276;39702;-70
2023/10/17 00:57:15;;;;;;;16.00;9.10;;;;;;;2.64;82.82;100976.11;109160;276;38262;-69
2023/10/17 00:59:57;;;;;;;17.70;10.40;;;;;;;2.63;82.90;100972.67;109176;276;38222;-70
2023/10/17 01:02:44;;;;;;;17.90;9.90;;;;;;;2.63;83.08;100973.02;109191;276;37906;-70
2023/10/17 01:05:20;;;;;;;16.40;10.20;;;;;;;2.64;83.07;100973.02;109167;276;39460;-71
2023/10/17 01:07:57;;;;;;;16.20;9.10;;;;;;;2.61;82.93;100973.35;109130;276;38161;-70
2023/10/17 01:10:32;;;;;;;13.10;8.60;;;;;;;2.56;82.77;100974.02;109147;276;38246;-72
2023/10/17 01:13:09;;;;;;;15.80;9.00;;;;;;;2.53;82.82;100973.48;109115;276;38494;-73
2023/10/17 01:15:44;;;;;;;15.50;9.50;;;;;;;2.50;82.76;100973.83;109144;276;38430;-74
2023/10/17 01:18:18;;;;;;;16.40;9.30;;;;;;;2.45;82.77;100971.91;109128;276;38420;-73
2023/10/17 01:20:53;;;;;;;17.50;9.70;;;;;;;2.41;82.73;100975.84;109141;276;38894;-71
2023/10/17 01:23:31;;;;;;;14.40;9.30;;;;;;;2.34;82.81;100972.02;109106;276;38170;-70
2023/10/17 01:26:09;;;;;;;14.70;9.30;;;;;;;2.28;82.92;100969.40;109116;276;39720;-70
2023/10/17 01:28:47;;;;;;;16.60;9.50;;;;;;;2.24;83.08;100969.04;109100;278;39310;-69
2023/10/17 01:31:25;;;;;;;12.70;7.90;;;;;;;2.21;83.17;100973.85;109048;278;38419;-72
2023/10/17 01:34:02;;;;;;;20.30;9.40;;;;;;;2.18;83.05;100976.23;109081;278;38983;-71
2023/10/17 01:36:37;;;;;;;14.70;9.30;;;;;;;2.16;83.25;100980.19;109090;278;39891;-70
2023/10/17 01:39:14;;;;;;;17.70;9.60;;;;;;;2.14;83.44;100975.86;109126;278;38846;-72
2023/10/17 01:41:55;;;;;;;16.30;9.40;;;;;;;2.13;83.57;100977.23;109146;278;38296;-74
2023/10/17 01:44:30;;;;;;;14.30;9.40;;;;;;;2.12;83.74;100976.55;109145;277;38266;-70
2023/10/17 01:47:07;;;;;;;14.70;8.40;;;;;;;2.11;83.72;100980.16;106794;278;3013387;-70
2023/10/17 01:49:46;;;;;;;;;;;;;;;2.08;83.57;100980.13;109131;278;39402;-73
2023/10/17 01:52:20;;;;;;;13.70;8.70;;;;;;;2.01;83.86;100981.98;109027;278;39759;-74
2023/10/17 01:54:59;;;;;;;13.40;8.20;;;;;;;2.00;83.75;100975.95;109091;278;40110;-70
2023/10/17 01:57:40;;;;;;;15.40;9.40;;;;;;;1.98;83.79;100981.27;109041;277;38642;-70
2023/10/17 02:00:23;;;;;;;14.60;9.00;;;;;;;1.96;83.79;100982.46;109076;277;39648;-70
2023/10/17 02:02:58;;;;;;;17.50;9.90;;;;;;;1.91;83.79;100986.04;109033;277;38777;-71
2023/10/17 02:05:32;;;;;;;16.20;9.10;;;;;;;1.87;83.82;100984.11;109058;278;39637;-70
2023/10/17 02:08:10;;;;;;;15.20;9.10;;;;;;;1.82;83.90;100985.28;109050;278;38370;-69
2023/10/17 02:10:47;;;;;;;16.70;8.80;;;;;;;1.78;83.98;100985.42;109043;277;39517;-70
2023/10/17 02:13:25;;;;;;;17.30;9.70;;;;;;;1.78;84.28;100991.28;109044;277;38516;-71
2023/10/17 02:16:03;;;;;;;14.00;9.20;;;;;;;1.79;84.47;100991.63;109066;277;38797;-73
2023/10/17 02:18:46;;;;;;;13.20;8.60;;;;;;;1.80;84.61;100994.38;109037;277;38309;-73
2023/10/17 02:21:22;;;;;;;14.60;9.00;;;;;;;1.81;84.69;100993.18;109103;277;38344;-70
2023/10/17 02:24:03;;;;;;;11.70;8.50;;;;;;;1.82;84.86;100992.52;109031;277;38486;-72
2023/10/17 02:26:43;;;;;;;14.20;9.80;;;;;;;1.85;84.94;100988.92;109051;276;38597;-70
2023/10/17 02:29:23;;;;;;;15.10;9.30;;;;;;;1.88;85.36;100989.63;109171;276;39089;-70
2023/10/17 02:31:58;;;;;;;13.00;9.30;;;;;;;1.92;85.34;100993.95;109101;276;38244;-69
2023/10/17 02:34:35;;;;;;;16.90;9.90;;;;;;;1.93;85.28;100993.11;109165;276;38649;-69
2023/10/17 02:37:13;;;;;;;16.00;10.00;;;;;;;1.95;85.22;100993.30;109112;276;38254;-69
2023/10/17 02:39:50;;;;;;;15.20;8.90;;;;;;;1.96;85.21;100995.04;109117;276;39513;-69
2023/10/17 02:42:27;;;;;;;13.80;9.00;;;;;;;1.97;85.17;100988.48;109106;276;38915;-69
2023/10/17 02:45:07;;;;;;;12.80;9.00;;;;;;;1.98;85.42;100989.88;109133;276;38743;-68
2023/10/17 02:47:44;;;;;;;18.30;10.10;;;;;;;2.00;85.52;100990.06;108678;276;612999;-69
2023/10/17 02:50:42;;;;;;;16.40;9.40;;;;;;;2.02;85.57;100991.63;109012;276;38584;-70
2023/10/17 02:53:16;;;;;;;15.90;9.30;;;;;;;2.04;85.69;100995.41;109131;276;39960;-69
2023/10/17 02:55:52;;;;;;;14.60;9.00;;;;;;;2.03;85.65;100999.04;109175;276;38194;-69
2023/10/17 02:58:30;;;;;;;15.90;9.60;;;;;;;2.06;85.76;100997.48;109175;276;38561;-69
2023/10/17 03:01:04;;;;;;;14.70;9.20;;;;;;;2.10;85.78;100997.86;109162;276;39342;-69
2023/10/17 03:03:39;;;;;;;16.10;9.70;;;;;;;2.11;85.68;100997.18;108496;276;909870;-69
2023/10/17 03:06:18;;;;;;;17.10;10.20;;;;;;;2.10;85.58;100998.56;109091;276;175811;-68
2023/10/17 03:09:15;;;;;;;15.00;10.30;;;;;;;2.08;85.72;100996.31;109181;276;38379;-70
2023/10/17 03:12:07;;;;;;;18.80;9.20;;;;;;;2.07;85.71;101005.25;109141;276;38785;-69
2023/10/17 03:15:17;;;;;;;14.40;8.60;;;;;;;2.08;85.68;101003.02;109153;276;39684;-72
2023/10/17 03:17:35;;;;;;;14.50;8.80;;;;;;;2.08;85.55;101007.50;109154;276;38269;-72
2023/10/17 03:20:16;;;;;;;14.10;9.50;;;;;;;2.07;85.59;101010.58;109091;276;38802;-70
2023/10/17 03:22:53;;;;;;;14.60;10.60;;;;;;;2.05;85.59;101011.60;109074;276;38284;-71
2023/10/17 03:25:27;;;;;;;16.50;10.70;;;;;;;2.04;85.60;101008.85;109181;276;37920;-73
2023/10/17 03:28:13;;;;;;;14.70;9.50;;;;;;;2.02;85.55;101008.14;109128;276;38200;-72
2023/10/17 03:30:56;;;;;;;15.60;9.10;;;;;;;2.00;85.40;101010.37;109193;276;38280;-68
2023/10/17 03:33:40;;;;;;;12.70;9.10;;;;;;;1.98;85.42;101008.96;109132;276;38442;-68
2023/10/17 03:39:19;;;;;;;16.10;10.10;;;;;;;1.88;85.34;101015.42;109125;276;38188;-70
2023/10/17 03:41:59;;;;;;;12.80;9.40;;;;;;;1.80;85.37;101017.09;109116;276;39860;-72
2023/10/17 03:44:39;;;;;;;15.30;9.40;;;;;;;1.79;85.66;101016.73;109165;276;40097;-71
2023/10/17 03:47:17;;;;;;;15.30;9.80;;;;;;;1.76;85.72;101015.70;109166;276;38204;-71
2023/10/17 03:49:56;;;;;;;17.10;9.30;;;;;;;1.71;85.45;101014.27;109197;276;38372;-68
2023/10/17 03:52:33;;;;;;;16.20;8.80;;;;;;;1.67;85.49;101012.51;109143;276;39965;-70
2023/10/17 03:55:10;;;;;;;16.70;9.70;;;;;;;1.67;85.74;101012.86;109150;276;39962;-70
2023/10/17 03:57:52;;;;;;;16.30;9.90;;;;;;;1.70;86.16;101014.44;109151;276;38599;-72
2023/10/17 04:00:40;;;;;;;13.60;9.60;;;;;;;1.70;85.93;101015.98;109135;276;37956;-69
2023/10/17 04:03:21;;;;;;;15.60;9.10;;;;;;;1.67;85.93;101019.91;109106;276;38519;-70
2023/10/17 04:06:17;;;;;;;16.50;10.20;;;;;;;1.65;85.88;101019.88;109119;276;38272;-73
2023/10/17 04:09:15;;;;;;;14.60;9.30;;;;;;;1.66;86.20;101017.31;109128;276;38371;-71
2023/10/17 04:11:56;;;;;;;11.70;9.10;;;;;;;1.67;86.24;101016.46;109002;276;38550;-72
2023/10/17 04:14:33;;;;;;;16.90;9.80;;;;;;;1.69;86.30;101015.45;109170;276;37980;-73
2023/10/17 04:17:07;;;;;;;13.50;9.90;;;;;;;1.68;86.21;101017.34;109141;276;38618;-70
2023/10/17 04:19:48;;;;;;;16.70;9.70;;;;;;;1.67;86.41;101016.30;109156;276;39633;-68
2023/10/17 04:22:29;;;;;;;16.00;10.60;;;;;;;1.67;86.39;101017.33;109130;276;39930;-68
2023/10/17 04:25:19;;;;;;;19.00;10.30;;;;;;;1.66;86.36;101017.66;109148;276;38612;-69
2023/10/17 04:28:00;;;;;;;14.00;9.40;;;;;;;1.66;86.60;101020.77;109148;276;38270;-69
2023/10/17 04:30:46;;;;;;;15.50;9.60;;;;;;;1.67;86.63;101020.42;109212;276;39626;-69
2023/10/17 04:33:28;;;;;;;14.70;10.20;;;;;;;1.71;86.91;101020.11;109149;276;38705;-67
2023/10/17 04:36:09;;;;;;;16.00;10.30;;;;;;;1.74;87.02;101022.55;109017;276;39767;-72
2023/10/17 04:38:46;;;;;;;17.70;9.60;;;;;;;1.77;86.87;101020.69;109179;276;39252;-72
2023/10/17 04:41:36;;;;;;;16.10;10.20;;;;;;;1.81;87.06;101024.14;109148;276;38435;-67
2023/10/17 04:44:18;;;;;;;17.00;11.20;;;;;;;1.81;86.98;101028.63;109106;276;39150;-69
2023/10/17 04:47:07;;;;;;;20.20;10.80;;;;;;;1.80;87.06;101030.51;109112;276;38498;-68
2023/10/17 04:49:44;;;;;;;16.20;10.90;;;;;;;1.80;87.23;101036.70;109113;276;39497;-71
2023/10/17 04:52:21;;;;;;;15.60;8.60;;;;;;;1.79;87.06;101035.83;109158;276;39565;-71
2023/10/17 04:55:17;;;;;;;17.90;9.90;;;;;;;1.79;86.94;101038.06;109152;276;39349;-70
2023/10/17 04:57:58;;;;;;;17.20;10.20;;;;;;;1.78;87.12;101041.16;109138;276;38375;-71
2023/10/17 05:01:10;;;;;;;16.90;10.40;;;;;;;1.81;87.25;101044.45;109237;276;39664;-71
2023/10/17 05:03:48;;;;;;;17.00;10.20;;;;;;;1.81;87.14;101048.41;109169;276;39635;-71
2023/10/17 06:16:49;;;;;;;16.60;10.40;;;;;;;1.84;87.32;101056.17;109031;276;38179;-69
2023/10/17 06:18:17;;;;;;;20.50;12.70;;;;;;;2.70;88.66;101110.85;109156;276;38328;-72
2023/10/17 06:21:18;;;;;;;23.30;13.70;;;;;;;2.77;88.64;101117.11;109061;276;41441;-68
2023/10/17 06:24:32;;;;;;;24.70;13.90;;;;;;;2.83;88.42;101124.55;109139;276;38833;-69
2023/10/17 06:27:43;;;;;;;19.50;13.20;;;;;;;2.89;88.48;101123.71;109242;276;38406;-75
2023/10/17 06:33:19;;;;;;;19.10;13.00;;;;;;;3.05;88.46;101125.02;109036;276;38587;-70
2023/10/17 06:35:57;;;;;;;25.00;14.20;;;;;;;3.15;88.36;101124.71;109110;276;40243;-69
2023/10/17 06:38:46;;;;;;;24.40;14.50;;;;;;;3.24;88.35;101133.02;109092;276;38161;-69
2023/10/17 06:41:30;;;;;;;25.90;14.60;;;;;;;3.32;88.26;101132.02;109084;276;38355;-73
2023/10/17 06:44:06;;;;;;;22.90;14.90;;;;;;;3.40;88.37;101132.40;109040;276;175392;-69
2023/10/17 06:46:48;;;;;;;26.70;14.90;;;;;;;3.51;88.56;101129.33;109138;273;38726;-68
2023/10/17 06:50:03;;;;;;;23.40;13.70;;;;;;;3.60;88.45;101130.56;109109;276;39588;-69
2023/10/17 06:52:54;;;;;;;23.80;14.90;;;;;;;3.76;88.82;101135.09;109108;269;38181;-68
2023/10/17 06:55:34;;;;;;;23.10;14.60;;;;;;;3.91;88.60;101135.45;109111;276;39363;-71
2023/10/17 06:58:21;;;;;;;25.00;14.70;;;;;;;4.06;88.82;101135.13;109124;276;38191;-68
2023/10/17 07:01:05;;;;;;;25.00;15.20;;;;;;;4.18;88.38;101134.27;109128;276;38504;-73
2023/10/17 07:03:45;;;;;;;29.20;15.80;;;;;;;4.31;88.16;101133.75;109138;276;39554;-73
2023/10/17 07:06:21;;;;;;;23.60;15.20;;;;;;;4.43;88.12;101135.31;109194;276;38094;-73
2023/10/17 07:09:05;;;;;;;27.40;16.10;;;;;;;4.54;87.99;101136.68;109133;276;38627;-73
2023/10/17 07:11:39;;;;;;;22.40;15.00;;;;;;;4.69;87.97;101133.39;109195;276;38483;-72
2023/10/17 07:14:36;;;;;;;24.70;15.10;;;;;;;4.84;87.76;101131.45;109136;276;38217;-69
2023/10/17 07:17:25;;;;;;;27.10;16.20;;;;;;;4.96;87.44;101136.95;109106;269;38206;-69
2023/10/17 07:20:12;;;;;;;27.40;16.70;;;;;;;5.08;87.19;101136.58;109103;276;39390;-68
2023/10/17 07:22:55;;;;;;;29.10;16.10;;;;;;;5.21;87.43;101136.88;109120;276;38148;-69
2023/10/17 07:25:42;;;;;;;25.00;15.40;;;;;;;5.38;87.86;101136.64;108966;276;38347;-69
2023/10/17 07:28:24;;;;;;;24.20;16.20;;;;;;;5.58;87.79;101136.35;109109;276;37804;-68
2023/10/17 07:31:04;;;;;;;23.20;15.50;;;;;;;5.87;87.93;101137.76;109150;276;40229;-69
2023/10/17 07:33:46;;;;;;;25.10;15.20;;;;;;;6.28;87.90;101137.31;109090;276;38187;-68
2023/10/17 07:36:23;;;;;;;24.20;15.70;;;;;;;6.59;87.80;101135.48;109103;276;39424;-68
2023/10/17 07:38:57;;;;;;;23.30;15.70;;;;;;;6.95;87.45;101135.82;109191;276;39319;-69
2023/10/17 07:41:37;;;;;;;20.00;14.90;;;;;;;7.30;87.25;101140.09;109100;276;38427;-67
2023/10/17 07:44:21;;;;;;;22.00;13.80;;;;;;;7.83;87.86;101138.00;109108;276;38175;-69
2023/10/17 07:47:08;;;;;;;23.40;13.60;;;;;;;8.50;85.79;101132.95;109112;276;38167;-68
2023/10/17 07:49:47;;;;;;;19.50;13.10;;;;;;;9.30;83.40;101132.48;109116;276;38481;-73
2023/10/17 07:52:22;;;;;;;18.50;11.80;;;;;;;10.06;80.13;101130.80;109133;276;40129;-73
2023/10/17 07:55:17;;;;;;;18.50;12.10;;;;;;;10.67;77.27;101134.02;109163;276;39334;-68
2023/10/17 07:58:06;;;;;;;16.70;11.60;;;;;;;11.06;75.14;101138.39;109116;276;38203;-69
2023/10/17 08:00:42;;;;;;;18.30;11.40;;;;;;;11.19;73.10;101139.08;109137;276;38561;-72
2023/10/17 08:03:20;;;;;;;16.90;11.60;;;;;;;11.22;71.44;101139.34;109118;276;38221;-71
2023/10/17 08:06:07;;;;;;;16.70;11.60;;;;;;;11.20;70.80;101140.12;109180;276;38469;-68
2023/10/17 08:08:50;;;;;;;15.70;10.90;;;;;;;11.23;70.93;101140.20;109075;276;38659;-68
2023/10/17 08:11:36;;;;;;;12.90;10.30;;;;;;;11.28;70.12;101142.33;109092;276;38263;-69
2023/10/17 08:14:17;;;;;;;16.30;10.40;;;;;;;11.33;70.23;101142.70;109094;276;38236;-71
2023/10/17 08:16:54;;;;;;;13.40;10.10;;;;;;;11.35;69.58;101147.70;109117;276;38841;-72
2023/10/17 08:19:36;;;;;;;15.80;10.50;;;;;;;11.27;68.86;101145.12;109189;276;38286;-71
2023/10/17 08:22:17;;;;;;;14.30;10.90;;;;;;;11.13;68.63;101144.66;109092;276;38309;-73
2023/10/17 08:24:53;;;;;;;14.30;10.00;;;;;;;10.95;68.32;101144.66;109143;276;39623;-68
2023/10/17 08:27:45;;;;;;;15.70;11.00;;;;;;;10.73;68.46;101141.55;109124;276;38827;-68
2023/10/17 08:30:34;;;;;;;16.20;11.00;;;;;;;10.52;68.64;101145.77;109105;276;39897;-67
2023/10/17 08:33:15;;;;;;;13.50;10.10;;;;;;;10.45;68.65;101147.70;109152;276;38808;-68
2023/10/17 08:36:03;;;;;;;15.70;10.50;;;;;;;10.51;69.39;101147.71;109105;276;38767;-72
2023/10/17 08:38:40;;;;;;;15.90;10.70;;;;;;;10.65;69.73;101151.71;109141;276;38351;-71
2023/10/17 08:41:17;;;;;;;16.80;10.50;;;;;;;10.76;69.50;101147.58;109165;276;38377;-71
2023/10/17 08:43:53;;;;;;;15.50;10.90;;;;;;;10.88;69.12;101143.95;109116;276;38232;-71
2023/10/17 08:46:29;;;;;;;14.50;10.60;;;;;;;10.86;68.09;101143.66;109174;276;38782;-71
2023/10/17 08:49:10;;;;;;;16.60;11.10;;;;;;;10.79;68.29;101142.08;109159;276;38333;-69
2023/10/17 08:51:46;;;;;;;15.30;10.80;;;;;;;10.76;68.38;101143.05;109130;276;39421;-68
2023/10/17 08:54:34;;;;;;;14.80;10.90;;;;;;;10.73;68.19;101142.09;109105;276;38307;-69
2023/10/17 08:57:17;;;;;;;17.70;11.10;;;;;;;10.68;68.57;101147.46;109079;276;38368;-68
2023/10/17 09:00:23;;;;;;;13.60;10.20;;;;;;;10.65;68.84;101145.27;109160;276;38468;-68
2023/10/17 09:03:09;;;;;;;13.90;10.00;;;;;;;10.67;69.51;101145.39;109149;276;38206;-68
2023/10/17 09:06:05;;;;;;;14.90;9.80;;;;;;;10.83;69.60;101146.16;109136;276;38566;-72
2023/10/17 09:08:47;;;;;;;12.40;9.60;;;;;;;10.97;68.78;101143.89;109120;276;38631;-73
2023/10/17 09:11:30;;;;;;;14.90;9.30;;;;;;;11.11;68.92;101145.59;109149;276;38204;-73
2023/10/17 09:14:16;;;;;;;12.90;8.90;;;;;;;11.51;69.06;101144.45;109179;276;38693;-68
2023/10/17 09:17:16;;;;;;;12.90;8.30;;;;;;;12.14;68.20;101137.63;109127;276;38269;-67
2023/10/17 09:19:57;;;;;;;11.50;7.80;;;;;;;12.96;67.37;101134.51;109146;276;38464;-70
2023/10/17 09:22:50;;;;;;;10.80;7.40;;;;;;;13.83;66.68;101133.38;109121;276;38604;-68
2023/10/17 09:25:26;;;;;;;11.50;6.50;;;;;;;14.77;63.57;101133.20;109100;276;38504;-67
2023/10/17 09:28:12;;;;;;;8.00;5.20;;;;;;;15.49;61.26;101130.86;109120;276;38632;-68
2023/10/17 09:31:06;;;;;;;9.10;6.00;;;;;;;16.24;59.10;101131.19;109103;276;40115;-68
2023/10/17 09:33:45;;;;;;;7.00;5.40;;;;;;;16.91;57.02;101129.01;109125;276;39367;-68
2023/10/17 09:36:25;;;;;;;8.60;6.20;;;;;;;17.43;54.01;101123.06;109126;276;39839;-71
2023/10/17 09:38:58;;;;;;;7.60;5.30;;;;;;;17.91;52.86;101124.49;109182;276;38363;-69
2023/10/17 09:41:36;;;;;;;9.00;5.90;;;;;;;18.33;51.70;101127.17;109102;276;39664;-72
2023/10/17 09:44:12;;;;;;;8.00;5.30;;;;;;;18.77;50.96;101128.86;109161;276;39441;-72
2023/10/17 09:46:50;;;;;;;6.10;4.40;;;;;;;19.14;48.83;101130.83;108975;276;38219;-72
2023/10/17 09:49:29;;;;;;;7.60;4.70;;;;;;;19.37;48.52;101124.80;109097;276;38600;-69
2023/10/17 09:52:09;;;;;;;5.50;4.30;;;;;;;19.48;47.29;101125.70;109113;276;38517;-69
2023/10/17 09:54:56;;;;;;;7.20;4.40;;;;;;;19.38;47.26;101126.36;109154;276;38365;-68
2023/10/17 09:57:33;;;;;;;6.30;4.30;;;;;;;19.04;46.86;101124.19;108986;276;176639;-67
2023/10/17 10:00:18;;;;;;;8.30;4.90;;;;;;;18.60;46.55;101123.64;109117;276;39980;-71
2023/10/17 10:02:52;;;;;;;7.70;4.70;;;;;;;18.15;46.73;101121.34;109135;276;39796;-72
2023/10/17 10:05:28;;;;;;;7.40;4.80;;;;;;;17.70;47.32;101112.07;109138;276;38458;-69
2023/10/17 10:08:28;;;;;;;8.30;4.80;;;;;;;17.21;47.51;101114.21;109103;276;38752;-67
2023/10/17 10:11:06;;;;;;;7.00;4.10;;;;;;;16.67;48.10;101117.02;109157;276;38959;-69
2023/10/17 10:14:08;;;;;;;8.50;4.50;;;;;;;16.29;48.76;101110.13;109097;276;38471;-67
2023/10/17 10:16:55;;;;;;;5.80;3.50;;;;;;;15.87;49.05;101114.13;109168;276;38246;-72
2023/10/17 10:20:09;;;;;;;5.20;2.70;;;;;;;15.46;49.16;101116.05;109161;276;38263;-69
2023/10/17 10:23:02;;;;;;;5.70;2.70;;;;;;;15.00;49.20;101113.23;109103;276;39809;-68
2023/10/17 10:25:59;;;;;;;6.00;2.90;;;;;;;14.67;49.53;101110.29;109118;276;38346;-68
2023/10/17 10:28:38;;;;;;;4.10;2.60;;;;;;;14.23;49.29;101106.67;109166;276;38851;-68
2023/10/17 10:31:42;;;;;;;4.30;2.50;;;;;;;13.80;49.70;101106.12;109157;276;38360;-69
2023/10/17 10:34:18;;;;;;;4.80;2.50;;;;;;;13.48;50.85;101103.50;109110;276;38148;-69
2023/10/17 10:36:58;;;;;;;5.10;1.90;;;;;;;13.26;50.92;101099.11;109117;276;39959;-69
2023/10/17 10:39:39;;;;;;;7.10;2.70;;;;;;;13.01;50.92;101101.92;109097;276;38213;-67
2023/10/17 10:42:17;;;;;;;6.80;2.30;;;;;;;12.74;51.34;101099.21;109114;276;38612;-68
2023/10/17 10:44:57;;;;;;;6.50;2.90;;;;;;;12.51;51.68;101094.59;109114;276;39401;-68
2023/10/17 10:47:31;;;;;;;6.70;2.90;;;;;;;12.33;52.42;101089.79;108389;276;945044;-70
2023/10/17 10:50:11;;;;;;;6.80;3.30;;;;;;;12.16;52.85;101085.80;108989;276;38923;-73
2023/10/17 10:52:48;;;;;;;7.40;3.10;;;;;;;12.04;53.36;101085.84;109003;276;175234;-72
2023/10/17 10:55:23;;;;;;;6.20;2.90;;;;;;;11.95;53.90;101081.09;109140;276;38766;-71
2023/10/17 10:57:56;;;;;;;10.10;3.30;;;;;;;11.94;54.25;101078.83;109157;276;38788;-70
2023/10/17 11:00:33;;;;;;;5.50;2.90;;;;;;;11.90;54.18;101074.73;109156;276;38572;-71
2023/10/17 11:03:12;;;;;;;5.80;3.00;;;;;;;11.85;54.38;101075.80;109182;276;38267;-73
2023/10/17 11:06:04;;;;;;;6.30;2.90;;;;;;;11.86;54.77;101072.62;109201;276;38243;-68
2023/10/17 11:08:43;;;;;;;6.70;3.70;;;;;;;11.91;55.10;101069.48;109179;276;38150;-69
2023/10/17 11:11:19;;;;;;;4.50;2.50;;;;;;;11.97;55.34;101070.50;109092;276;38214;-71
2023/10/17 11:13:56;;;;;;;7.70;3.20;;;;;;;12.02;55.24;101070.17;109112;276;38246;-69
2023/10/17 11:16:30;;;;;;;5.90;3.00;;;;;;;12.07;54.78;101067.23;108987;276;38234;-69
2023/10/17 11:19:09;;;;;;;6.00;3.00;;;;;;;12.15;54.93;101065.72;109174;276;39979;-71
2023/10/17 11:21:55;;;;;;;5.10;2.70;;;;;;;12.25;55.00;101063.47;109106;276;38429;-72
2023/10/17 11:24:30;;;;;;;5.90;3.10;;;;;;;12.32;54.48;101056.56;109167;276;38886;-73
2023/10/17 11:27:04;;;;;;;6.10;3.80;;;;;;;12.36;54.13;101050.11;109109;276;39204;-73
2023/10/17 11:29:38;;;;;;;5.60;2.70;;;;;;;12.38;53.38;101056.70;109136;276;38461;-69
2023/10/17 11:32:15;;;;;;;6.00;2.60;;;;;;;12.39;53.27;101046.54;109109;276;38194;-68
2023/10/17 11:35:06;;;;;;;6.30;2.60;;;;;;;12.42;53.33;101053.09;109170;276;38242;-71
2023/10/17 11:37:51;;;;;;;7.10;3.60;;;;;;;12.46;53.20;101048.05;109137;276;38172;-72
2023/10/17 11:40:44;;;;;;;5.90;3.20;;;;;;;12.47;53.29;101049.21;109172;276;38221;-67
2023/10/17 11:43:28;;;;;;;5.40;3.30;;;;;;;12.46;52.90;101042.29;109131;276;38347;-68
2023/10/17 11:46:03;;;;;;;3.20;2.10;;;;;;;12.43;52.45;101045.35;109192;276;38396;-68
2023/10/17 11:48:43;;;;;;;6.80;3.10;;;;;;;12.39;51.51;101043.73;109125;276;39412;-67
2023/10/17 11:51:29;;;;;;;4.00;2.10;;;;;;;12.35;51.98;101042.64;109109;276;38729;-70
2023/10/17 11:54:10;;;;;;;4.00;2.20;;;;;;;12.38;52.38;101039.56;109098;276;38451;-71
2023/10/17 11:56:45;;;;;;;4.30;2.40;;;;;;;12.44;52.19;101035.52;109131;276;39419;-70
2023/10/17 11:59:25;;;;;;;4.00;2.30;;;;;;;12.48;52.46;101030.47;109118;276;39437;-71
2023/10/17 12:02:03;;;;;;;2.80;1.60;;;;;;;12.52;52.46;101030.33;109145;276;38225;-73
2023/10/17 12:04:37;;;;;;;6.70;2.30;;;;;;;12.54;51.08;101026.73;109147;276;38335;-68
2023/10/17 12:07:19;;;;;;;4.30;2.40;;;;;;;12.52;50.95;101024.02;109092;276;38451;-69
2023/10/17 12:10:02;;;;;;;5.70;1.80;;;;;;;12.48;50.58;101025.39;109145;276;38749;-71
2023/10/17 12:12:39;;;;;;;3.70;2.00;;;;;;;12.46;51.09;101023.02;109117;276;39075;-73
2023/10/17 12:15:13;;;;;;;6.10;2.40;;;;;;;12.46;50.72;101026.36;109128;276;38210;-70
2023/10/17 12:18:11;;;;;;;3.80;1.90;;;;;;;12.45;50.72;101025.34;109110;276;38475;-74
2023/10/17 12:20:55;;;;;;;5.50;2.20;;;;;;;12.38;50.34;101020.48;109027;276;175251;-68
2023/10/17 12:23:34;;;;;;;4.40;1.80;;;;;;;12.34;50.43;101022.39;109137;276;38317;-70
2023/10/17 12:26:29;;;;;;;3.30;1.90;;;;;;;12.31;50.36;101019.34;109181;276;38255;-73
2023/10/17 12:29:12;;;;;;;3.90;2.00;;;;;;;12.26;49.99;101014.59;109185;276;38326;-70
2023/10/17 12:31:53;;;;;;;3.70;1.90;;;;;;;12.24;50.37;101005.59;109151;276;39191;-70
2023/10/17 12:34:28;;;;;;;4.50;1.90;;;;;;;12.25;50.59;101009.05;109167;276;38629;-69
2023/10/17 12:37:12;;;;;;;5.90;2.30;;;;;;;12.28;50.64;101007.05;109168;276;38177;-67
2023/10/17 12:39:47;;;;;;;2.60;1.80;;;;;;;12.31;50.67;101005.87;109183;276;39983;-69
2023/10/17 12:42:25;;;;;;;6.10;2.20;;;;;;;12.30;50.52;101006.45;109150;276;39409;-68
2023/10/17 12:45:08;;;;;;;4.60;1.90;;;;;;;12.27;50.20;101005.15;109183;276;38285;-72
2023/10/17 12:47:47;;;;;;;4.60;1.70;;;;;;;12.21;49.72;101005.34;109123;276;39882;-73
2023/10/17 12:50:27;;;;;;;;;;;;;;;12.15;49.72;100998.91;109145;276;38197;-72
2023/10/17 12:53:10;;;;;;;5.20;1.70;;;;;;;12.01;50.18;100995.17;109115;276;38432;-71
2023/10/17 12:55:47;;;;;;;2.60;1.40;;;;;;;11.95;50.20;100989.81;109156;276;39414;-71
2023/10/17 12:58:24;;;;;;;5.50;1.90;;;;;;;11.86;50.16;100988.52;109105;276;38220;-73
2023/10/17 13:01:00;;;;;;;4.10;1.70;;;;;;;11.77;50.35;100986.16;109115;276;38646;-73
2023/10/17 13:03:37;;;;;;;3.60;1.70;;;;;;;11.71;50.62;100989.00;109162;276;38935;-71
2023/10/17 13:06:24;;;;;;;3.40;1.60;;;;;;;11.63;50.46;100983.50;109111;276;38826;-74
2023/10/17 13:09:08;;;;;;;3.90;1.70;;;;;;;11.52;50.68;100980.86;109017;276;39691;-67
2023/10/17 13:11:48;;;;;;;5.60;1.80;;;;;;;11.42;50.41;100980.66;109127;276;38154;-69
2023/10/17 13:14:28;;;;;;;3.90;1.70;;;;;;;11.35;50.62;100976.67;109185;276;38174;-70
2023/10/17 13:17:09;;;;;;;5.30;1.80;;;;;;;11.29;50.73;100981.61;109245;276;38171;-70
2023/10/17 13:19:52;;;;;;;4.70;1.80;;;;;;;11.22;50.76;100979.70;109105;276;38530;-72
2023/10/17 13:22:26;;;;;;;5.70;2.10;;;;;;;11.15;51.07;100979.75;109191;276;39350;-73
2023/10/17 13:25:10;;;;;;;3.80;1.90;;;;;;;11.07;51.15;100978.59;109204;276;38390;-73
2023/10/17 13:27:45;;;;;;;3.80;2.20;;;;;;;10.98;50.97;100981.85;109166;276;38180;-72
2023/10/17 13:30:20;;;;;;;4.30;2.00;;;;;;;10.90;51.18;100981.05;109173;276;38780;-70
2023/10/17 13:32:57;;;;;;;4.00;2.00;;;;;;;10.80;51.55;100975.41;109159;276;39389;-68
2023/10/17 13:35:37;;;;;;;3.90;2.20;;;;;;;10.70;51.72;100971.31;109144;276;39341;-74
2023/10/17 13:38:13;;;;;;;4.40;2.00;;;;;;;10.61;51.81;100969.48;109140;276;38336;-72
2023/10/17 13:40:48;;;;;;;6.10;2.20;;;;;;;10.52;52.03;100969.56;109135;276;38775;-75
2023/10/17 13:43:44;;;;;;;4.70;2.10;;;;;;;10.46;52.32;100972.36;109129;276;38181;-72